sensor_id;sensor_type;location;lat;lon;timestamp;P1;durP1;ratioP1;P2;durP2;ratioP2
32082;SDS011;18597;48.328;7.932;2023-01-19T00:00:03;32.23;;;20.00;;
32082;SDS011;18597;48.328;7.932;2023-01-19T00:02:31;23.30;;;13.00;;
32082;SDS011;18597;48.328;7.932;2023-01-19T00:04:57;23.70;;;13.13;;
32082;SDS011;18597;48.328;7.932;2023-01-19T00:07:23;18.60;;;11.20;;
32082;SDS011;18597;48.328;7.932;2023-01-19T00:09:49;21.40;;;12.57;;
32082;SDS011;18597;48.328;7.932;2023-01-19T00:12:15;21.93;;;12.70;;
32082;SDS011;18597;48.328;7.932;2023-01-19T00:14:40;29.90;;;18.27;;
32082;SDS011;18597;48.328;7.932;2023-01-19T00:17:06;25.23;;;15.73;;
32082;SDS011;18597;48.328;7.932;2023-01-19T00:19:32;34.80;;;19.60;;
32082;SDS011;18597;48.328;7.932;2023-01-19T00:21:58;38.30;;;20.73;;
32082;SDS011;18597;48.328;7.932;2023-01-19T00:24:24;22.00;;;12.07;;
32082;SDS011;18597;48.328;7.932;2023-01-19T00:26:49;17.93;;;11.30;;
32082;SDS011;18597;48.328;7.932;2023-01-19T00:29:15;24.87;;;13.27;;
32082;SDS011;18597;48.328;7.932;2023-01-19T00:31:41;22.17;;;12.80;;
32082;SDS011;18597;48.328;7.932;2023-01-19T00:34:07;29.90;;;17.93;;
32082;SDS011;18597;48.328;7.932;2023-01-19T00:36:33;26.80;;;17.40;;
32082;SDS011;18597;48.328;7.932;2023-01-19T00:38:59;26.70;;;18.40;;
32082;SDS011;18597;48.328;7.932;2023-01-19T00:41:25;35.57;;;18.40;;
32082;SDS011;18597;48.328;7.932;2023-01-19T00:44:11;20.13;;;13.87;;
32082;SDS011;18597;48.328;7.932;2023-01-19T00:46:37;31.30;;;14.23;;
32082;SDS011;18597;48.328;7.932;2023-01-19T00:49:03;25.77;;;14.83;;
32082;SDS011;18597;48.328;7.932;2023-01-19T00:51:29;25.17;;;14.23;;
32082;SDS011;18597;48.328;7.932;2023-01-19T00:53:56;25.77;;;14.00;;
32082;SDS011;18597;48.328;7.932;2023-01-19T00:56:23;24.20;;;13.53;;
32082;SDS011;18597;48.328;7.932;2023-01-19T00:58:49;24.10;;;12.70;;
32082;SDS011;18597;48.328;7.932;2023-01-19T01:01:15;24.50;;;12.97;;
32082;SDS011;18597;48.328;7.932;2023-01-19T01:03:41;23.73;;;13.90;;
32082;SDS011;18597;48.328;7.932;2023-01-19T01:06:07;21.73;;;13.07;;
32082;SDS011;18597;48.328;7.932;2023-01-19T01:08:33;26.43;;;15.47;;
32082;SDS011;18597;48.328;7.932;2023-01-19T01:10:59;21.13;;;13.53;;
32082;SDS011;18597;48.328;7.932;2023-01-19T01:13:26;38.50;;;14.13;;
32082;SDS011;18597;48.328;7.932;2023-01-19T01:15:52;21.73;;;13.57;;
32082;SDS011;18597;48.328;7.932;2023-01-19T01:18:20;23.63;;;13.73;;
32082;SDS011;18597;48.328;7.932;2023-01-19T01:20:46;23.10;;;13.77;;
32082;SDS011;18597;48.328;7.932;2023-01-19T01:23:13;27.80;;;16.53;;
32082;SDS011;18597;48.328;7.932;2023-01-19T01:25:39;26.00;;;15.47;;
32082;SDS011;18597;48.328;7.932;2023-01-19T01:28:07;26.53;;;16.07;;
32082;SDS011;18597;48.328;7.932;2023-01-19T01:30:34;24.20;;;16.20;;
32082;SDS011;18597;48.328;7.932;2023-01-19T01:33:04;21.97;;;14.03;;
32082;SDS011;18597;48.328;7.932;2023-01-19T01:35:30;26.60;;;17.77;;
32082;SDS011;18597;48.328;7.932;2023-01-19T01:37:58;61.83;;;32.03;;
32082;SDS011;18597;48.328;7.932;2023-01-19T01:40:25;88.70;;;47.47;;
32082;SDS011;18597;48.328;7.932;2023-01-19T01:42:52;47.40;;;30.17;;
32082;SDS011;18597;48.328;7.932;2023-01-19T01:45:23;41.47;;;27.57;;
32082;SDS011;18597;48.328;7.932;2023-01-19T01:48:29;36.40;;;18.30;;
32082;SDS011;18597;48.328;7.932;2023-01-19T01:50:52;24.30;;;16.27;;
32082;SDS011;18597;48.328;7.932;2023-01-19T01:53:44;24.17;;;15.83;;
32082;SDS011;18597;48.328;7.932;2023-01-19T01:56:26;25.80;;;14.23;;
32082;SDS011;18597;48.328;7.932;2023-01-19T01:59:00;22.90;;;14.10;;
32082;SDS011;18597;48.328;7.932;2023-01-19T02:01:31;27.10;;;15.03;;
32082;SDS011;18597;48.328;7.932;2023-01-19T02:04:17;26.00;;;13.40;;
32082;SDS011;18597;48.328;7.932;2023-01-19T02:06:45;22.40;;;14.10;;
32082;SDS011;18597;48.328;7.932;2023-01-19T02:09:32;26.70;;;15.70;;
32082;SDS011;18597;48.328;7.932;2023-01-19T02:12:21;26.60;;;13.60;;
32082;SDS011;18597;48.328;7.932;2023-01-19T02:15:16;26.97;;;15.20;;
32082;SDS011;18597;48.328;7.932;2023-01-19T02:17:44;23.47;;;15.10;;
32082;SDS011;18597;48.328;7.932;2023-01-19T02:20:11;41.87;;;16.40;;
32082;SDS011;18597;48.328;7.932;2023-01-19T02:22:41;28.73;;;14.83;;
32082;SDS011;18597;48.328;7.932;2023-01-19T02:25:13;25.10;;;15.83;;
32082;SDS011;18597;48.328;7.932;2023-01-19T02:27:41;25.23;;;15.33;;
32082;SDS011;18597;48.328;7.932;2023-01-19T02:30:07;23.43;;;14.80;;
32082;SDS011;18597;48.328;7.932;2023-01-19T02:32:34;27.03;;;15.20;;
32082;SDS011;18597;48.328;7.932;2023-01-19T02:35:00;25.47;;;15.20;;
32082;SDS011;18597;48.328;7.932;2023-01-19T02:37:27;24.17;;;15.20;;
32082;SDS011;18597;48.328;7.932;2023-01-19T02:39:57;26.50;;;14.13;;
32082;SDS011;18597;48.328;7.932;2023-01-19T02:42:36;32.90;;;16.70;;
32082;SDS011;18597;48.328;7.932;2023-01-19T02:45:14;34.73;;;15.87;;
32082;SDS011;18597;48.328;7.932;2023-01-19T02:47:46;30.90;;;15.60;;
32082;SDS011;18597;48.328;7.932;2023-01-19T02:50:46;27.00;;;15.10;;
32082;SDS011;18597;48.328;7.932;2023-01-19T02:58:54;24.90;;;15.30;;
32082;SDS011;18597;48.328;7.932;2023-01-19T03:04:52;26.70;;;14.97;;
32082;SDS011;18597;48.328;7.932;2023-01-19T03:07:46;24.73;;;13.70;;
32082;SDS011;18597;48.328;7.932;2023-01-19T03:13:13;21.57;;;14.57;;
32082;SDS011;18597;48.328;7.932;2023-01-19T03:16:19;24.50;;;13.60;;
32082;SDS011;18597;48.328;7.932;2023-01-19T03:19:01;27.13;;;15.33;;
32082;SDS011;18597;48.328;7.932;2023-01-19T03:21:34;29.00;;;14.73;;
32082;SDS011;18597;48.328;7.932;2023-01-19T03:24:05;24.73;;;15.17;;
32082;SDS011;18597;48.328;7.932;2023-01-19T03:26:36;21.00;;;13.80;;
32082;SDS011;18597;48.328;7.932;2023-01-19T03:29:08;19.70;;;14.20;;
32082;SDS011;18597;48.328;7.932;2023-01-19T03:31:36;26.40;;;13.10;;
32082;SDS011;18597;48.328;7.932;2023-01-19T03:34:05;23.37;;;14.20;;
32082;SDS011;18597;48.328;7.932;2023-01-19T03:36:36;23.67;;;14.63;;
32082;SDS011;18597;48.328;7.932;2023-01-19T03:39:17;27.00;;;14.80;;
32082;SDS011;18597;48.328;7.932;2023-01-19T03:41:49;21.23;;;14.00;;
32082;SDS011;18597;48.328;7.932;2023-01-19T03:44:22;25.07;;;15.43;;
32082;SDS011;18597;48.328;7.932;2023-01-19T03:46:50;27.47;;;15.93;;
32082;SDS011;18597;48.328;7.932;2023-01-19T03:49:16;24.60;;;14.73;;
32082;SDS011;18597;48.328;7.932;2023-01-19T03:51:43;28.30;;;16.30;;
32082;SDS011;18597;48.328;7.932;2023-01-19T03:54:09;27.20;;;15.20;;
32082;SDS011;18597;48.328;7.932;2023-01-19T03:56:35;25.43;;;14.90;;
32082;SDS011;18597;48.328;7.932;2023-01-19T03:59:01;27.53;;;15.20;;
32082;SDS011;18597;48.328;7.932;2023-01-19T04:01:29;25.93;;;15.60;;
32082;SDS011;18597;48.328;7.932;2023-01-19T04:03:55;23.37;;;15.00;;
32082;SDS011;18597;48.328;7.932;2023-01-19T04:06:21;24.63;;;14.70;;
32082;SDS011;18597;48.328;7.932;2023-01-19T04:08:48;31.40;;;13.80;;
32082;SDS011;18597;48.328;7.932;2023-01-19T04:11:15;26.93;;;13.93;;
32082;SDS011;18597;48.328;7.932;2023-01-19T04:13:41;24.13;;;15.30;;
32082;SDS011;18597;48.328;7.932;2023-01-19T04:16:08;29.50;;;14.80;;
32082;SDS011;18597;48.328;7.932;2023-01-19T04:18:35;23.00;;;14.03;;
32082;SDS011;18597;48.328;7.932;2023-01-19T04:21:02;30.20;;;14.50;;
32082;SDS011;18597;48.328;7.932;2023-01-19T04:23:30;33.17;;;15.80;;
32082;SDS011;18597;48.328;7.932;2023-01-19T04:25:58;25.97;;;13.80;;
32082;SDS011;18597;48.328;7.932;2023-01-19T04:28:30;26.53;;;14.77;;
32082;SDS011;18597;48.328;7.932;2023-01-19T04:30:58;20.80;;;13.40;;
32082;SDS011;18597;48.328;7.932;2023-01-19T04:33:25;25.83;;;14.40;;
32082;SDS011;18597;48.328;7.932;2023-01-19T04:35:51;23.80;;;14.13;;
32082;SDS011;18597;48.328;7.932;2023-01-19T04:38:18;27.03;;;14.70;;
32082;SDS011;18597;48.328;7.932;2023-01-19T04:40:58;25.90;;;13.97;;
32082;SDS011;18597;48.328;7.932;2023-01-19T04:43:24;23.10;;;13.90;;
32082;SDS011;18597;48.328;7.932;2023-01-19T04:45:50;28.83;;;15.30;;
32082;SDS011;18597;48.328;7.932;2023-01-19T04:48:18;21.00;;;13.67;;
32082;SDS011;18597;48.328;7.932;2023-01-19T04:50:44;22.17;;;14.60;;
32082;SDS011;18597;48.328;7.932;2023-01-19T04:53:11;27.23;;;15.23;;
32082;SDS011;18597;48.328;7.932;2023-01-19T04:55:37;21.03;;;13.20;;
32082;SDS011;18597;48.328;7.932;2023-01-19T04:58:03;30.47;;;16.23;;
32082;SDS011;18597;48.328;7.932;2023-01-19T05:00:29;37.85;;;14.77;;
32082;SDS011;18597;48.328;7.932;2023-01-19T05:02:55;25.60;;;15.30;;
32082;SDS011;18597;48.328;7.932;2023-01-19T05:05:21;30.93;;;17.00;;
32082;SDS011;18597;48.328;7.932;2023-01-19T05:07:47;36.27;;;16.77;;
32082;SDS011;18597;48.328;7.932;2023-01-19T05:10:13;28.50;;;17.10;;
32082;SDS011;18597;48.328;7.932;2023-01-19T05:12:38;27.43;;;16.87;;
32082;SDS011;18597;48.328;7.932;2023-01-19T05:15:06;38.30;;;17.37;;
32082;SDS011;18597;48.328;7.932;2023-01-19T05:17:33;29.83;;;16.83;;
32082;SDS011;18597;48.328;7.932;2023-01-19T05:19:59;25.00;;;15.87;;
32082;SDS011;18597;48.328;7.932;2023-01-19T05:22:26;30.23;;;16.03;;
32082;SDS011;18597;48.328;7.932;2023-01-19T05:24:51;28.53;;;15.50;;
32082;SDS011;18597;48.328;7.932;2023-01-19T05:27:17;25.67;;;15.70;;
32082;SDS011;18597;48.328;7.932;2023-01-19T05:29:43;25.77;;;16.07;;
32082;SDS011;18597;48.328;7.932;2023-01-19T05:32:09;29.20;;;16.10;;
32082;SDS011;18597;48.328;7.932;2023-01-19T05:34:35;27.90;;;15.97;;
32082;SDS011;18597;48.328;7.932;2023-01-19T05:37:01;31.33;;;17.40;;
32082;SDS011;18597;48.328;7.932;2023-01-19T05:39:27;24.33;;;16.53;;
32082;SDS011;18597;48.328;7.932;2023-01-19T05:41:54;51.33;;;27.60;;
32082;SDS011;18597;48.328;7.932;2023-01-19T05:44:20;57.63;;;28.33;;
32082;SDS011;18597;48.328;7.932;2023-01-19T05:46:46;62.50;;;28.27;;
32082;SDS011;18597;48.328;7.932;2023-01-19T05:49:12;50.70;;;26.50;;
32082;SDS011;18597;48.328;7.932;2023-01-19T05:51:37;48.07;;;23.37;;
32082;SDS011;18597;48.328;7.932;2023-01-19T05:54:04;46.00;;;24.80;;
32082;SDS011;18597;48.328;7.932;2023-01-19T05:56:32;47.77;;;22.40;;
32082;SDS011;18597;48.328;7.932;2023-01-19T05:58:59;37.80;;;19.90;;
32082;SDS011;18597;48.328;7.932;2023-01-19T06:01:26;37.22;;;20.98;;
32082;SDS011;18597;48.328;7.932;2023-01-19T06:03:52;39.00;;;22.07;;
32082;SDS011;18597;48.328;7.932;2023-01-19T06:06:18;49.07;;;23.27;;
32082;SDS011;18597;48.328;7.932;2023-01-19T06:08:44;49.23;;;25.10;;
32082;SDS011;18597;48.328;7.932;2023-01-19T06:11:10;46.57;;;23.33;;
32082;SDS011;18597;48.328;7.932;2023-01-19T06:13:36;40.67;;;21.73;;
32082;SDS011;18597;48.328;7.932;2023-01-19T06:16:04;44.67;;;23.23;;
32082;SDS011;18597;48.328;7.932;2023-01-19T06:18:31;49.17;;;25.43;;
32082;SDS011;18597;48.328;7.932;2023-01-19T06:20:57;31.80;;;18.60;;
32082;SDS011;18597;48.328;7.932;2023-01-19T06:23:28;31.50;;;19.50;;
32082;SDS011;18597;48.328;7.932;2023-01-19T06:25:55;36.97;;;17.87;;
32082;SDS011;18597;48.328;7.932;2023-01-19T06:28:21;29.20;;;17.40;;
32082;SDS011;18597;48.328;7.932;2023-01-19T06:30:48;33.80;;;16.67;;
32082;SDS011;18597;48.328;7.932;2023-01-19T06:33:16;26.80;;;15.63;;
32082;SDS011;18597;48.328;7.932;2023-01-19T06:35:43;30.47;;;17.70;;
32082;SDS011;18597;48.328;7.932;2023-01-19T06:38:10;28.87;;;18.20;;
32082;SDS011;18597;48.328;7.932;2023-01-19T06:40:38;19.57;;;12.43;;
32082;SDS011;18597;48.328;7.932;2023-01-19T06:43:05;18.03;;;12.43;;
32082;SDS011;18597;48.328;7.932;2023-01-19T06:45:32;24.70;;;12.17;;
32082;SDS011;18597;48.328;7.932;2023-01-19T06:47:58;26.47;;;15.10;;
32082;SDS011;18597;48.328;7.932;2023-01-19T06:50:24;20.43;;;14.30;;
32082;SDS011;18597;48.328;7.932;2023-01-19T06:52:50;18.90;;;13.00;;
32082;SDS011;18597;48.328;7.932;2023-01-19T06:55:17;19.33;;;14.07;;
32082;SDS011;18597;48.328;7.932;2023-01-19T06:57:43;25.40;;;15.63;;
32082;SDS011;18597;48.328;7.932;2023-01-19T07:00:10;26.60;;;16.60;;
32082;SDS011;18597;48.328;7.932;2023-01-19T07:02:40;32.60;;;18.00;;
32082;SDS011;18597;48.328;7.932;2023-01-19T07:05:07;29.00;;;16.70;;
32082;SDS011;18597;48.328;7.932;2023-01-19T07:07:35;31.50;;;17.27;;
32082;SDS011;18597;48.328;7.932;2023-01-19T07:10:04;29.17;;;16.20;;
32082;SDS011;18597;48.328;7.932;2023-01-19T07:12:32;38.00;;;18.20;;
32082;SDS011;18597;48.328;7.932;2023-01-19T07:14:58;32.17;;;19.00;;
32082;SDS011;18597;48.328;7.932;2023-01-19T07:17:24;29.93;;;19.47;;
32082;SDS011;18597;48.328;7.932;2023-01-19T07:19:50;40.20;;;23.70;;
32082;SDS011;18597;48.328;7.932;2023-01-19T07:22:16;25.97;;;15.73;;
32082;SDS011;18597;48.328;7.932;2023-01-19T07:24:43;26.20;;;18.40;;
32082;SDS011;18597;48.328;7.932;2023-01-19T07:27:08;25.17;;;15.63;;
32082;SDS011;18597;48.328;7.932;2023-01-19T07:29:35;24.43;;;17.13;;
32082;SDS011;18597;48.328;7.932;2023-01-19T07:32:02;20.30;;;12.90;;
32082;SDS011;18597;48.328;7.932;2023-01-19T07:34:28;23.37;;;12.87;;
32082;SDS011;18597;48.328;7.932;2023-01-19T07:36:55;26.60;;;15.97;;
32082;SDS011;18597;48.328;7.932;2023-01-19T07:39:21;31.33;;;17.37;;
32082;SDS011;18597;48.328;7.932;2023-01-19T07:41:47;22.73;;;15.57;;
32082;SDS011;18597;48.328;7.932;2023-01-19T07:44:13;27.30;;;16.00;;
32082;SDS011;18597;48.328;7.932;2023-01-19T07:46:39;47.87;;;13.90;;
32082;SDS011;18597;48.328;7.932;2023-01-19T07:49:05;27.47;;;16.27;;
32082;SDS011;18597;48.328;7.932;2023-01-19T07:51:32;22.60;;;15.57;;
32082;SDS011;18597;48.328;7.932;2023-01-19T07:53:58;25.47;;;15.37;;
32082;SDS011;18597;48.328;7.932;2023-01-19T07:56:23;24.77;;;14.83;;
32082;SDS011;18597;48.328;7.932;2023-01-19T07:58:51;27.07;;;15.37;;
32082;SDS011;18597;48.328;7.932;2023-01-19T08:01:17;32.73;;;16.17;;
32082;SDS011;18597;48.328;7.932;2023-01-19T08:03:43;24.90;;;15.27;;
32082;SDS011;18597;48.328;7.932;2023-01-19T08:06:15;31.40;;;15.97;;
32082;SDS011;18597;48.328;7.932;2023-01-19T08:08:45;23.20;;;14.70;;
32082;SDS011;18597;48.328;7.932;2023-01-19T08:11:12;26.50;;;14.60;;
32082;SDS011;18597;48.328;7.932;2023-01-19T08:13:38;23.93;;;16.10;;
32082;SDS011;18597;48.328;7.932;2023-01-19T08:16:03;27.43;;;16.83;;
32082;SDS011;18597;48.328;7.932;2023-01-19T08:18:30;27.07;;;15.40;;
32082;SDS011;18597;48.328;7.932;2023-01-19T08:20:57;20.40;;;14.70;;
32082;SDS011;18597;48.328;7.932;2023-01-19T08:23:24;21.37;;;13.00;;
32082;SDS011;18597;48.328;7.932;2023-01-19T08:25:52;26.73;;;14.97;;
32082;SDS011;18597;48.328;7.932;2023-01-19T08:28:18;88.60;;;41.37;;
32082;SDS011;18597;48.328;7.932;2023-01-19T08:30:44;36.93;;;19.53;;
32082;SDS011;18597;48.328;7.932;2023-01-19T08:33:17;52.43;;;27.23;;
32082;SDS011;18597;48.328;7.932;2023-01-19T08:35:46;29.43;;;19.53;;
32082;SDS011;18597;48.328;7.932;2023-01-19T08:38:15;21.17;;;12.17;;
32082;SDS011;18597;48.328;7.932;2023-01-19T08:40:41;24.73;;;14.17;;
32082;SDS011;18597;48.328;7.932;2023-01-19T08:43:08;20.63;;;13.37;;
32082;SDS011;18597;48.328;7.932;2023-01-19T08:45:39;20.77;;;12.27;;
32082;SDS011;18597;48.328;7.932;2023-01-19T08:48:12;22.40;;;14.70;;
32082;SDS011;18597;48.328;7.932;2023-01-19T08:50:40;30.13;;;16.60;;
32082;SDS011;18597;48.328;7.932;2023-01-19T08:53:09;22.27;;;12.70;;
32082;SDS011;18597;48.328;7.932;2023-01-19T08:55:35;20.73;;;13.50;;
32082;SDS011;18597;48.328;7.932;2023-01-19T08:58:01;22.63;;;14.17;;
32082;SDS011;18597;48.328;7.932;2023-01-19T09:00:28;21.13;;;14.47;;
32082;SDS011;18597;48.328;7.932;2023-01-19T09:02:55;19.27;;;13.90;;
32082;SDS011;18597;48.328;7.932;2023-01-19T09:05:22;27.17;;;14.63;;
32082;SDS011;18597;48.328;7.932;2023-01-19T09:07:48;30.00;;;15.57;;
32082;SDS011;18597;48.328;7.932;2023-01-19T09:10:15;26.50;;;15.57;;
32082;SDS011;18597;48.328;7.932;2023-01-19T09:12:43;23.60;;;15.93;;
32082;SDS011;18597;48.328;7.932;2023-01-19T09:15:10;30.70;;;19.17;;
32082;SDS011;18597;48.328;7.932;2023-01-19T09:17:38;20.30;;;14.83;;
32082;SDS011;18597;48.328;7.932;2023-01-19T09:20:06;19.87;;;14.73;;
32082;SDS011;18597;48.328;7.932;2023-01-19T09:22:33;25.63;;;15.23;;
32082;SDS011;18597;48.328;7.932;2023-01-19T09:24:59;57.57;;;29.57;;
32082;SDS011;18597;48.328;7.932;2023-01-19T09:27:24;79.47;;;34.07;;
32082;SDS011;18597;48.328;7.932;2023-01-19T09:29:50;28.07;;;17.63;;
32082;SDS011;18597;48.328;7.932;2023-01-19T09:32:18;22.37;;;13.20;;
32082;SDS011;18597;48.328;7.932;2023-01-19T09:34:44;30.57;;;21.90;;
32082;SDS011;18597;48.328;7.932;2023-01-19T09:37:11;37.27;;;19.03;;
32082;SDS011;18597;48.328;7.932;2023-01-19T09:39:37;27.20;;;17.37;;
32082;SDS011;18597;48.328;7.932;2023-01-19T09:42:05;31.30;;;19.40;;
32082;SDS011;18597;48.328;7.932;2023-01-19T09:44:48;17.50;;;12.53;;
32082;SDS011;18597;48.328;7.932;2023-01-19T09:47:18;22.27;;;14.77;;
32082;SDS011;18597;48.328;7.932;2023-01-19T09:50:00;19.43;;;13.50;;
32082;SDS011;18597;48.328;7.932;2023-01-19T09:52:35;25.83;;;13.90;;
32082;SDS011;18597;48.328;7.932;2023-01-19T09:55:06;18.20;;;12.00;;
32082;SDS011;18597;48.328;7.932;2023-01-19T09:57:54;13.87;;;10.87;;
32082;SDS011;18597;48.328;7.932;2023-01-19T10:00:20;12.23;;;9.20;;
32082;SDS011;18597;48.328;7.932;2023-01-19T10:02:49;15.93;;;11.43;;
32082;SDS011;18597;48.328;7.932;2023-01-19T10:05:55;18.63;;;12.10;;
32082;SDS011;18597;48.328;7.932;2023-01-19T10:11:19;26.00;;;18.43;;
32082;SDS011;18597;48.328;7.932;2023-01-19T10:13:58;16.10;;;12.40;;
32082;SDS011;18597;48.328;7.932;2023-01-19T10:16:28;11.70;;;9.20;;
32082;SDS011;18597;48.328;7.932;2023-01-19T10:19:16;17.97;;;9.67;;
32082;SDS011;18597;48.328;7.932;2023-01-19T10:21:50;10.43;;;7.90;;
32082;SDS011;18597;48.328;7.932;2023-01-19T10:24:29;10.73;;;7.90;;
32082;SDS011;18597;48.328;7.932;2023-01-19T10:27:02;8.20;;;6.87;;
32082;SDS011;18597;48.328;7.932;2023-01-19T10:29:39;8.30;;;7.60;;
32082;SDS011;18597;48.328;7.932;2023-01-19T10:32:08;6.83;;;6.33;;
32082;SDS011;18597;48.328;7.932;2023-01-19T10:34:43;9.47;;;7.13;;
32082;SDS011;18597;48.328;7.932;2023-01-19T10:37:15;12.10;;;7.07;;
32082;SDS011;18597;48.328;7.932;2023-01-19T10:39:52;7.70;;;5.13;;
32082;SDS011;18597;48.328;7.932;2023-01-19T10:42:26;10.13;;;5.07;;
32082;SDS011;18597;48.328;7.932;2023-01-19T10:44:54;7.00;;;6.13;;
32082;SDS011;18597;48.328;7.932;2023-01-19T10:47:21;7.30;;;5.67;;
32082;SDS011;18597;48.328;7.932;2023-01-19T10:49:56;7.30;;;5.83;;
32082;SDS011;18597;48.328;7.932;2023-01-19T10:54:57;5.83;;;4.87;;
32082;SDS011;18597;48.328;7.932;2023-01-19T10:57:27;6.13;;;5.57;;
32082;SDS011;18597;48.328;7.932;2023-01-19T11:00:00;11.43;;;6.03;;
32082;SDS011;18597;48.328;7.932;2023-01-19T11:02:29;6.50;;;5.87;;
32082;SDS011;18597;48.328;7.932;2023-01-19T11:04:58;5.77;;;5.03;;
32082;SDS011;18597;48.328;7.932;2023-01-19T11:07:30;7.57;;;5.27;;
32082;SDS011;18597;48.328;7.932;2023-01-19T11:13:18;5.73;;;5.00;;
32082;SDS011;18597;48.328;7.932;2023-01-19T11:18:32;5.43;;;5.00;;
32082;SDS011;18597;48.328;7.932;2023-01-19T11:21:03;9.10;;;5.50;;
32082;SDS011;18597;48.328;7.932;2023-01-19T11:23:38;7.70;;;5.23;;
32082;SDS011;18597;48.328;7.932;2023-01-19T11:26:23;6.27;;;4.27;;
32082;SDS011;18597;48.328;7.932;2023-01-19T11:28:55;7.40;;;4.60;;
32082;SDS011;18597;48.328;7.932;2023-01-19T11:34:02;9.00;;;4.77;;
32082;SDS011;18597;48.328;7.932;2023-01-19T11:36:54;4.73;;;4.40;;
32082;SDS011;18597;48.328;7.932;2023-01-19T11:39:26;5.97;;;3.83;;
32082;SDS011;18597;48.328;7.932;2023-01-19T11:41:59;4.93;;;4.50;;
32082;SDS011;18597;48.328;7.932;2023-01-19T11:44:30;4.50;;;4.10;;
32082;SDS011;18597;48.328;7.932;2023-01-19T11:47:02;4.80;;;4.03;;
32082;SDS011;18597;48.328;7.932;2023-01-19T11:49:45;4.63;;;4.33;;
32082;SDS011;18597;48.328;7.932;2023-01-19T11:52:48;4.80;;;4.50;;
32082;SDS011;18597;48.328;7.932;2023-01-19T11:58:15;5.57;;;5.07;;
32082;SDS011;18597;48.328;7.932;2023-01-19T12:00:44;4.50;;;4.30;;
32082;SDS011;18597;48.328;7.932;2023-01-19T12:03:21;4.53;;;4.20;;
32082;SDS011;18597;48.328;7.932;2023-01-19T12:05:57;4.07;;;3.77;;
32082;SDS011;18597;48.328;7.932;2023-01-19T12:08:29;5.30;;;4.30;;
32082;SDS011;18597;48.328;7.932;2023-01-19T12:11:09;6.13;;;4.63;;
32082;SDS011;18597;48.328;7.932;2023-01-19T12:13:41;4.97;;;4.40;;
32082;SDS011;18597;48.328;7.932;2023-01-19T12:16:16;7.17;;;5.77;;
32082;SDS011;18597;48.328;7.932;2023-01-19T12:18:47;6.17;;;5.43;;
32082;SDS011;18597;48.328;7.932;2023-01-19T12:21:22;6.37;;;4.90;;
32082;SDS011;18597;48.328;7.932;2023-01-19T12:23:59;4.90;;;4.53;;
32082;SDS011;18597;48.328;7.932;2023-01-19T12:29:23;6.40;;;5.30;;
32082;SDS011;18597;48.328;7.932;2023-01-19T12:34:42;6.00;;;5.40;;
32082;SDS011;18597;48.328;7.932;2023-01-19T12:37:41;5.13;;;4.63;;
32082;SDS011;18597;48.328;7.932;2023-01-19T12:40:18;6.33;;;5.03;;
32082;SDS011;18597;48.328;7.932;2023-01-19T12:42:56;11.07;;;5.70;;
32082;SDS011;18597;48.328;7.932;2023-01-19T12:45:33;8.60;;;6.17;;
32082;SDS011;18597;48.328;7.932;2023-01-19T12:48:01;8.90;;;6.20;;
32082;SDS011;18597;48.328;7.932;2023-01-19T12:50:30;6.33;;;5.70;;
32082;SDS011;18597;48.328;7.932;2023-01-19T12:53:01;5.03;;;4.60;;
32082;SDS011;18597;48.328;7.932;2023-01-19T12:55:34;8.13;;;5.30;;
32082;SDS011;18597;48.328;7.932;2023-01-19T12:58:06;8.57;;;5.27;;
32082;SDS011;18597;48.328;7.932;2023-01-19T13:00:42;7.40;;;6.37;;
32082;SDS011;18597;48.328;7.932;2023-01-19T13:05:54;7.60;;;6.00;;
32082;SDS011;18597;48.328;7.932;2023-01-19T13:08:21;6.80;;;5.67;;
32082;SDS011;18597;48.328;7.932;2023-01-19T13:13:37;10.10;;;7.10;;
32082;SDS011;18597;48.328;7.932;2023-01-19T13:16:44;7.10;;;6.20;;
32082;SDS011;18597;48.328;7.932;2023-01-19T13:21:42;6.73;;;6.13;;
32082;SDS011;18597;48.328;7.932;2023-01-19T13:24:13;7.90;;;6.23;;
32082;SDS011;18597;48.328;7.932;2023-01-19T13:29:38;8.87;;;6.40;;
32082;SDS011;18597;48.328;7.932;2023-01-19T13:32:15;8.07;;;7.10;;
32082;SDS011;18597;48.328;7.932;2023-01-19T13:34:44;8.00;;;6.83;;
32082;SDS011;18597;48.328;7.932;2023-01-19T13:37:17;7.47;;;6.77;;
32082;SDS011;18597;48.328;7.932;2023-01-19T13:39:47;33.77;;;8.40;;
32082;SDS011;18597;48.328;7.932;2023-01-19T13:42:32;6.63;;;5.47;;
32082;SDS011;18597;48.328;7.932;2023-01-19T13:45:35;9.40;;;6.97;;
32082;SDS011;18597;48.328;7.932;2023-01-19T13:47:58;11.70;;;6.07;;
32082;SDS011;18597;48.328;7.932;2023-01-19T13:50:30;7.70;;;5.83;;
32082;SDS011;18597;48.328;7.932;2023-01-19T13:52:59;6.87;;;6.17;;
32082;SDS011;18597;48.328;7.932;2023-01-19T13:55:27;6.77;;;6.10;;
32082;SDS011;18597;48.328;7.932;2023-01-19T13:57:55;5.57;;;5.07;;
32082;SDS011;18597;48.328;7.932;2023-01-19T14:00:23;52.27;;;24.80;;
32082;SDS011;18597;48.328;7.932;2023-01-19T14:02:56;32.60;;;18.50;;
32082;SDS011;18597;48.328;7.932;2023-01-19T14:05:33;11.53;;;8.93;;
32082;SDS011;18597;48.328;7.932;2023-01-19T14:13:32;7.83;;;6.93;;
32082;SDS011;18597;48.328;7.932;2023-01-19T14:16:09;7.07;;;6.37;;
32082;SDS011;18597;48.328;7.932;2023-01-19T14:18:40;8.63;;;6.47;;
32082;SDS011;18597;48.328;7.932;2023-01-19T14:21:07;8.03;;;5.50;;
32082;SDS011;18597;48.328;7.932;2023-01-19T14:24:08;9.50;;;5.90;;
32082;SDS011;18597;48.328;7.932;2023-01-19T14:29:27;12.50;;;6.73;;
32082;SDS011;18597;48.328;7.932;2023-01-19T14:32:04;9.57;;;7.17;;
32082;SDS011;18597;48.328;7.932;2023-01-19T14:34:38;5.37;;;4.90;;
32082;SDS011;18597;48.328;7.932;2023-01-19T14:37:35;8.70;;;4.97;;
32082;SDS011;18597;48.328;7.932;2023-01-19T14:42:48;6.90;;;6.13;;
32082;SDS011;18597;48.328;7.932;2023-01-19T14:45:35;11.70;;;7.93;;
32082;SDS011;18597;48.328;7.932;2023-01-19T14:48:11;9.60;;;6.33;;
32082;SDS011;18597;48.328;7.932;2023-01-19T14:50:41;12.97;;;8.13;;
32082;SDS011;18597;48.328;7.932;2023-01-19T14:53:17;15.27;;;8.97;;
32082;SDS011;18597;48.328;7.932;2023-01-19T14:55:52;12.83;;;8.03;;
32082;SDS011;18597;48.328;7.932;2023-01-19T14:58:23;12.07;;;8.23;;
32082;SDS011;18597;48.328;7.932;2023-01-19T15:00:56;11.47;;;9.97;;
32082;SDS011;18597;48.328;7.932;2023-01-19T15:03:23;11.97;;;9.10;;
32082;SDS011;18597;48.328;7.932;2023-01-19T15:05:53;11.33;;;9.90;;
32082;SDS011;18597;48.328;7.932;2023-01-19T15:08:28;104.60;;;38.87;;
32082;SDS011;18597;48.328;7.932;2023-01-19T15:10:57;25.57;;;14.27;;
32082;SDS011;18597;48.328;7.932;2023-01-19T15:13:34;19.80;;;13.50;;
32082;SDS011;18597;48.328;7.932;2023-01-19T15:16:01;21.73;;;11.67;;
32082;SDS011;18597;48.328;7.932;2023-01-19T15:18:27;14.40;;;8.70;;
32082;SDS011;18597;48.328;7.932;2023-01-19T15:20:54;9.50;;;8.07;;
32082;SDS011;18597;48.328;7.932;2023-01-19T15:23:20;15.10;;;8.70;;
32082;SDS011;18597;48.328;7.932;2023-01-19T15:25:47;29.60;;;16.60;;
32082;SDS011;18597;48.328;7.932;2023-01-19T15:28:16;12.30;;;10.93;;
32082;SDS011;18597;48.328;7.932;2023-01-19T15:30:44;17.37;;;12.80;;
32082;SDS011;18597;48.328;7.932;2023-01-19T15:33:18;20.37;;;14.37;;
32082;SDS011;18597;48.328;7.932;2023-01-19T15:35:46;27.90;;;19.10;;
32082;SDS011;18597;48.328;7.932;2023-01-19T15:38:12;28.50;;;21.60;;
32082;SDS011;18597;48.328;7.932;2023-01-19T15:40:38;22.63;;;15.03;;
32082;SDS011;18597;48.328;7.932;2023-01-19T15:43:04;14.67;;;11.30;;